White Springs, Florida
Current Conditions -  °F | °C
As of 8:15 PM on Tuesday 27 Jan 2015 (Local Time) from KLCQ Reporting Station
Clear Clear  
Wind Chill: 46°   Ceiling: Unl
Heat Index: 46°   Visibility: 10mi
Dew Point: 39°   Wind: 0mph
Humidity: 76%   Direction: NA
Pressure: 30.02"   Gusts: NA
Location:  30.33°N, 82.76°W
Report Text: KLCQ 280115Z AUTO 00000KT 10SM CLR 08/04 A3002 RMK AO2
Loading
Personal Weather Stations






























Interactive Weather Map New forecast layout! Learn more

10-Day Weather Forecast

Advertisements
Track Severe Weather on mobile